This is the latest recevied weather packets stored in our database for station/object SQ5LTL-2. If no packets are shown the sender has not sent any weather packets the latest 10 day(s).
| Time | Temp. | Humidity | Pressure | Rain* | Wind** | Luminosity | Snow |
|---|---|---|---|---|---|---|---|
| 1777395017 | 8.89° C | 42% | 1024.3 hPa | 0 mm | - | 34 W/m² | - |
| 1777394133 | 9.44° C | 39% | 1024.3 hPa | 0 mm | - | 53 W/m² | - |
| 1777393831 | 9.44° C | 39% | 1024.1 hPa | 0 mm | - | 60 W/m² | - |
| 1777393530 | 8.89° C | 40% | 1024.3 hPa | 0 mm | - | 61 W/m² | - |
| 1777392625 | 8.89° C | 40% | 1024.1 hPa | 0 mm | - | 56 W/m² | - |
| 1777391722 | 9.44° C | 38% | 1024.2 hPa | 0 mm | - | 64 W/m² | - |
| 1777391420 | 10° C | 37% | 1024.1 hPa | 0 mm | - | 67 W/m² | - |
| 1777391119 | 10° C | 38% | 1024.1 hPa | 0 mm | - | 72 W/m² | - |
| 1777390535 | 10° C | 37% | 1024.1 hPa | 0 mm | - | 91 W/m² | - |
| 1777390234 | 10° C | 36% | 1024.2 hPa | 0 mm | - | 98 W/m² | - |
| 1777389932 | 10° C | 36% | 1024.1 hPa | 0 mm | - | 116 W/m² | - |
| 1777389631 | 10° C | 37% | 1024.2 hPa | 0 mm | - | 137 W/m² | - |
| 1777389329 | 10° C | 36% | 1024.2 hPa | 0 mm | - | 120 W/m² | - |
| 1777389029 | 10° C | 36% | 1024.2 hPa | 0 mm | - | 99 W/m² | - |
| 1777388425 | 10.56° C | 35% | 1024.3 hPa | 0 mm | - | 106 W/m² | - |
| 1777388124 | 10.56° C | 34% | 1024.2 hPa | 0 mm | - | 153 W/m² | - |
| 1777387522 | 11.11° C | 34% | 1024.2 hPa | 0 mm | - | 122 W/m² | - |
| 1777386918 | 11.11° C | 32% | 1024.3 hPa | 0 mm | - | 286 W/m² | - |
| 1777386617 | 10.56° C | 34% | 1024.4 hPa | 0 mm | - | 372 W/m² | - |
| 1777386335 | 10° C | 34% | 1024.4 hPa | 0 mm | - | 361 W/m² | - |
| 1777385732 | 10° C | 36% | 1024.4 hPa | 0 mm | - | 107 W/m² | - |
| 1777385432 | 10° C | 35% | 1024.5 hPa | 0 mm | - | 103 W/m² | - |
| 1777384528 | 11.11° C | 32% | 1024.4 hPa | 0 mm | - | 355 W/m² | - |
| 1777384226 | 10.56° C | 33% | 1024.5 hPa | 0 mm | - | 410 W/m² | - |
| 1777383924 | 9.44° C | 35% | 1024.6 hPa | 0 mm | - | 425 W/m² | - |
* Rain latest hour (hover to see other rain measurements)
** Current wind speed in m/s (hover to see current wind gust speed)